createdAt,value
2022-09-15T00:01:12.078Z,14.20
2022-09-15T00:03:40.129Z,14.20
2022-09-15T00:06:08.189Z,14.20
2022-09-15T00:08:35.601Z,14.20
2022-09-15T00:11:07.302Z,14.20
2022-09-15T00:13:35.869Z,14.20
2022-09-15T00:16:03.902Z,14.20
2022-09-15T00:18:31.868Z,14.20
2022-09-15T00:20:59.396Z,14.20
2022-09-15T00:23:26.851Z,14.20
2022-09-15T00:25:54.220Z,14.20
2022-09-15T00:28:22.721Z,14.20
2022-09-15T00:30:53.043Z,14.20
2022-09-15T00:33:22.348Z,14.20
2022-09-15T00:35:52.035Z,14.10
2022-09-15T00:38:20.390Z,14.10
2022-09-15T00:40:50.124Z,14.00
2022-09-15T00:43:19.991Z,14.00
2022-09-15T00:45:48.449Z,14.00
2022-09-15T00:48:20.720Z,14.00
2022-09-15T00:50:55.152Z,14.00
2022-09-15T00:53:24.709Z,14.00
2022-09-15T00:55:53.009Z,14.00
2022-09-15T00:58:36.831Z,14.00
2022-09-15T01:01:08.177Z,14.00
2022-09-15T01:03:36.670Z,13.90
2022-09-15T01:06:19.975Z,14.00
2022-09-15T01:09:23.987Z,14.00
2022-09-15T01:11:51.712Z,14.00
2022-09-15T01:14:19.119Z,14.00
2022-09-15T01:17:26.963Z,14.00
2022-09-15T01:47:28.043Z,13.90
2022-09-15T01:50:01.636Z,13.90
2022-09-15T01:52:29.807Z,13.90
2022-09-15T01:55:00.723Z,13.90
2022-09-15T01:57:28.296Z,13.90
2022-09-15T01:59:56.442Z,13.90
2022-09-15T02:02:32.189Z,13.90
2022-09-15T02:05:21.744Z,13.90
2022-09-15T02:08:05.377Z,13.90
2022-09-15T02:10:41.193Z,13.90
2022-09-15T02:13:22.579Z,13.90
2022-09-15T02:15:54.140Z,13.90
2022-09-15T02:18:48.613Z,13.90
2022-09-15T02:21:24.137Z,13.80
2022-09-15T02:23:57.145Z,13.80
2022-09-15T02:26:27.883Z,13.80
2022-09-15T02:28:56.719Z,13.80
2022-09-15T02:31:27.199Z,13.80
2022-09-15T02:34:00.444Z,13.70
2022-09-15T02:36:29.287Z,13.80
2022-09-15T02:39:03.604Z,13.70
2022-09-15T02:41:32.808Z,13.70
2022-09-15T02:44:00.108Z,13.80
2022-09-15T02:46:28.345Z,13.80
2022-09-15T02:48:57.010Z,13.70
2022-09-15T02:51:24.463Z,13.70
2022-09-15T02:53:53.235Z,13.70
2022-09-15T02:56:21.016Z,13.70
2022-09-15T02:58:48.466Z,13.70
2022-09-15T03:01:16.471Z,13.70
2022-09-15T03:03:45.671Z,13.70
2022-09-15T03:06:16.987Z,13.70
2022-09-15T03:08:50.889Z,13.70
2022-09-15T03:11:20.424Z,13.70
2022-09-15T03:13:48.346Z,13.70
2022-09-15T03:16:16.696Z,13.70
2022-09-15T03:18:44.232Z,13.70
2022-09-15T03:21:15.376Z,13.70
2022-09-15T03:23:43.007Z,13.70
2022-09-15T03:26:10.929Z,13.70
2022-09-15T03:28:39.305Z,13.80
2022-09-15T03:31:08.158Z,13.80
2022-09-15T03:33:35.884Z,13.80
2022-09-15T03:36:04.311Z,13.80
2022-09-15T03:38:31.779Z,13.80
2022-09-15T03:41:10.631Z,13.80
2022-09-15T03:43:39.033Z,13.80
2022-09-15T03:46:08.289Z,13.80
2022-09-15T03:48:36.402Z,13.70
2022-09-15T03:51:05.739Z,13.80
2022-09-15T03:53:34.793Z,13.80
2022-09-15T03:56:31.364Z,13.80
2022-09-15T03:59:03.358Z,13.70
2022-09-15T04:01:30.905Z,13.70
2022-09-15T04:03:58.716Z,13.80
2022-09-15T04:06:27.021Z,13.70
2022-09-15T04:08:54.972Z,13.80
2022-09-15T04:11:22.737Z,13.70
2022-09-15T04:13:50.372Z,13.70
2022-09-15T04:16:19.501Z,13.70
2022-09-15T04:18:46.907Z,13.70
2022-09-15T04:21:17.297Z,13.70
2022-09-15T04:23:46.059Z,13.70
2022-09-15T04:26:31.250Z,13.70
2022-09-15T04:29:03.921Z,13.60
2022-09-15T04:31:33.356Z,13.60
2022-09-15T04:34:01.181Z,13.50
2022-09-15T04:36:29.617Z,13.50
2022-09-15T04:38:58.228Z,13.40
2022-09-15T04:41:27.097Z,13.50
2022-09-15T04:43:54.799Z,13.40
2022-09-15T04:46:22.208Z,13.40
2022-09-15T04:48:49.813Z,13.40
2022-09-15T04:51:20.485Z,13.50
2022-09-15T04:53:48.130Z,13.50
2022-09-15T04:56:18.014Z,13.50
2022-09-15T04:58:53.694Z,13.50
2022-09-15T05:01:27.778Z,13.50
2022-09-15T05:03:55.908Z,13.60
2022-09-15T05:06:25.757Z,13.60
2022-09-15T05:08:57.024Z,13.60
2022-09-15T05:11:25.609Z,13.60
2022-09-15T05:13:53.063Z,13.60
2022-09-15T05:16:23.373Z,13.70
2022-09-15T05:18:52.916Z,13.60
2022-09-15T05:21:21.952Z,13.60
2022-09-15T05:23:52.010Z,13.70
2022-09-15T05:26:23.178Z,13.70
2022-09-15T05:28:50.610Z,13.80
2022-09-15T05:31:24.325Z,13.80
2022-09-15T05:33:53.144Z,13.80
2022-09-15T05:36:24.964Z,13.90
2022-09-15T05:38:58.849Z,13.90
2022-09-15T05:41:27.795Z,13.90
2022-09-15T05:43:59.831Z,14.00
2022-09-15T05:46:27.849Z,14.00
2022-09-15T05:48:57.605Z,14.00
2022-09-15T05:51:25.255Z,14.00
2022-09-15T05:53:52.784Z,14.00
2022-09-15T05:56:20.636Z,14.10
2022-09-15T05:58:49.422Z,14.10
2022-09-15T06:01:22.895Z,14.20
2022-09-15T06:03:51.070Z,14.20
2022-09-15T06:06:18.482Z,14.20
2022-09-15T06:08:51.903Z,14.30
2022-09-15T06:11:34.592Z,14.40
2022-09-15T06:14:04.015Z,14.50
2022-09-15T06:16:33.288Z,14.50
2022-09-15T06:19:03.561Z,14.70
2022-09-15T06:21:32.416Z,14.70
2022-09-15T06:24:04.155Z,14.70
2022-09-15T06:26:31.988Z,14.70
2022-09-15T06:29:04.904Z,14.70
2022-09-15T06:31:33.722Z,14.90
2022-09-15T06:34:03.861Z,14.90
2022-09-15T06:36:32.011Z,15.00
2022-09-15T06:38:59.730Z,15.00
2022-09-15T06:41:38.128Z,15.00
2022-09-15T06:44:21.731Z,14.90
2022-09-15T06:46:49.420Z,14.90
2022-09-15T06:49:17.072Z,14.90
2022-09-15T06:51:44.699Z,15.00
2022-09-15T06:54:12.139Z,15.00
2022-09-15T06:56:39.658Z,15.10
2022-09-15T06:59:07.444Z,15.20
2022-09-15T07:01:35.030Z,15.30
2022-09-15T07:04:05.835Z,15.40
2022-09-15T07:06:33.954Z,15.50
2022-09-15T07:09:04.657Z,15.50
2022-09-15T07:11:32.611Z,15.70
2022-09-15T07:14:00.027Z,15.70
2022-09-15T07:16:27.761Z,15.60
2022-09-15T07:19:01.907Z,15.60
2022-09-15T07:21:29.445Z,15.50
2022-09-15T07:23:57.844Z,15.50
2022-09-15T07:26:27.899Z,15.50
2022-09-15T07:28:58.611Z,15.60
2022-09-15T07:31:29.006Z,15.60
2022-09-15T07:33:56.496Z,15.70
2022-09-15T07:36:23.785Z,15.80
2022-09-15T07:38:51.481Z,15.80
2022-09-15T07:41:27.358Z,15.80
2022-09-15T07:43:57.111Z,15.90
2022-09-15T07:46:26.749Z,15.80
2022-09-15T07:48:56.570Z,15.90
2022-09-15T07:51:25.516Z,15.90
2022-09-15T07:53:53.834Z,15.90
2022-09-15T07:56:23.309Z,16.10
2022-09-15T07:58:51.126Z,16.10
2022-09-15T08:01:19.808Z,16.20
2022-09-15T08:03:49.417Z,16.20
2022-09-15T08:06:20.977Z,16.10
2022-09-15T08:08:49.160Z,16.00
2022-09-15T08:11:19.219Z,16.00
2022-09-15T08:13:48.556Z,16.10
2022-09-15T08:16:18.881Z,16.40
2022-09-15T08:18:47.004Z,16.60
2022-09-15T08:21:17.657Z,16.40
2022-09-15T08:23:45.214Z,16.30
2022-09-15T08:26:14.293Z,16.30
2022-09-15T08:28:42.932Z,16.50
2022-09-15T08:31:12.741Z,16.40
2022-09-15T08:33:45.208Z,16.20
2022-09-15T08:36:13.566Z,16.20
2022-09-15T08:38:42.245Z,16.40
2022-09-15T08:41:27.570Z,16.30
2022-09-15T08:44:32.257Z,16.20
2022-09-15T08:47:10.400Z,16.10
2022-09-15T08:50:03.587Z,16.40
2022-09-15T08:52:54.202Z,16.80
2022-09-15T08:55:48.166Z,16.80
2022-09-15T08:58:21.630Z,17.00
2022-09-15T09:00:52.240Z,17.20
2022-09-15T09:03:35.556Z,17.30
2022-09-15T09:06:41.597Z,17.20
2022-09-15T09:09:36.689Z,17.10
2022-09-15T09:12:30.409Z,17.10
2022-09-15T09:15:38.350Z,17.10
2022-09-15T09:18:47.137Z,17.40
2022-09-15T09:21:26.861Z,17.60
2022-09-15T09:24:35.083Z,17.30
2022-09-15T09:27:03.816Z,17.30
2022-09-15T09:29:36.607Z,17.30
2022-09-15T09:32:08.696Z,17.50
2022-09-15T09:34:43.469Z,17.50
2022-09-15T09:37:13.041Z,17.50
2022-09-15T09:39:40.492Z,17.40
2022-09-15T09:42:14.433Z,17.40
2022-09-15T09:44:42.518Z,17.50
2022-09-15T09:47:10.228Z,17.60
2022-09-15T09:49:45.802Z,17.50
2022-09-15T09:52:13.648Z,17.20
2022-09-15T09:54:42.264Z,17.00
2022-09-15T09:57:27.627Z,16.80
2022-09-15T09:59:55.426Z,16.60
2022-09-15T10:02:24.884Z,16.40
2022-09-15T10:05:02.768Z,16.30
2022-09-15T10:07:34.174Z,16.30
2022-09-15T10:10:02.674Z,16.20
2022-09-15T10:12:40.583Z,16.20
2022-09-15T10:15:21.077Z,16.20
2022-09-15T10:17:50.739Z,16.50
2022-09-15T10:20:47.827Z,16.80
2022-09-15T10:23:27.173Z,16.90
2022-09-15T10:26:34.310Z,17.00
2022-09-15T10:29:17.327Z,17.10
2022-09-15T10:31:46.280Z,17.20
2022-09-15T10:34:32.255Z,17.00
2022-09-15T10:37:36.133Z,17.10
2022-09-15T10:40:26.997Z,17.10
2022-09-15T10:43:03.953Z,17.20
2022-09-15T10:45:39.514Z,17.00
2022-09-15T10:48:50.140Z,17.00
2022-09-15T10:51:47.421Z,17.00
2022-09-15T10:54:54.968Z,17.30
2022-09-15T10:57:57.738Z,17.50
2022-09-15T11:00:28.300Z,17.80
2022-09-15T11:03:16.680Z,18.10
2022-09-15T11:06:23.732Z,18.00
2022-09-15T11:09:04.896Z,18.10
2022-09-15T11:12:25.874Z,18.20
2022-09-15T11:15:52.585Z,18.30
2022-09-15T11:18:58.998Z,18.40
2022-09-15T11:21:33.925Z,18.50
2022-09-15T11:27:34.495Z,18.90
2022-09-15T11:30:29.706Z,19.00
2022-09-15T11:33:21.225Z,19.10
2022-09-15T11:35:52.487Z,18.70
2022-09-15T11:38:26.594Z,18.70
2022-09-15T11:41:16.694Z,18.80
2022-09-15T11:44:35.046Z,18.70
2022-09-15T11:47:33.150Z,18.60
2022-09-15T11:50:38.874Z,18.70
2022-09-15T11:53:26.685Z,18.50
2022-09-15T11:56:17.009Z,18.50
2022-09-15T11:59:04.593Z,18.50
2022-09-15T12:01:53.640Z,18.50
2022-09-15T12:04:36.722Z,18.50
2022-09-15T12:07:15.661Z,18.80
2022-09-15T12:09:43.079Z,19.20
2022-09-15T12:12:18.505Z,19.00
2022-09-15T12:14:48.560Z,18.90
2022-09-15T12:17:25.816Z,18.60
2022-09-15T12:20:12.693Z,18.60
2022-09-15T12:22:51.627Z,18.90
2022-09-15T12:25:48.687Z,19.10
2022-09-15T12:28:58.623Z,18.90
2022-09-15T12:31:37.798Z,19.10
2022-09-15T12:34:24.817Z,19.20
2022-09-15T12:37:06.611Z,18.80
2022-09-15T12:39:44.946Z,18.50
2022-09-15T12:42:31.325Z,18.10
2022-09-15T12:45:30.310Z,17.70
2022-09-15T12:48:20.949Z,17.60
2022-09-15T12:50:58.540Z,17.50
2022-09-15T12:54:07.485Z,17.40
2022-09-15T12:56:35.532Z,17.10
2022-09-15T12:59:08.236Z,17.00
2022-09-15T13:01:49.596Z,16.80
2022-09-15T13:04:52.046Z,16.70
2022-09-15T13:07:31.019Z,16.60
2022-09-15T13:10:06.401Z,16.50
2022-09-15T13:12:41.032Z,16.50
2022-09-15T13:15:14.992Z,16.40
2022-09-15T13:17:47.421Z,16.40
2022-09-15T13:20:19.658Z,16.50
2022-09-15T13:22:52.864Z,16.40
2022-09-15T13:25:26.277Z,16.50
2022-09-15T13:28:01.199Z,16.40
2022-09-15T13:31:24.787Z,16.30
2022-09-15T13:40:59.847Z,16.20
2022-09-15T13:44:01.578Z,15.80
2022-09-15T13:50:14.965Z,15.10
2022-09-15T13:56:03.250Z,14.90
2022-09-15T14:01:22.250Z,14.80
2022-09-15T14:03:53.939Z,14.90
2022-09-15T14:06:26.403Z,14.90
2022-09-15T14:08:57.918Z,14.90
2022-09-15T14:11:29.648Z,14.90
2022-09-15T14:13:59.353Z,15.00
2022-09-15T14:16:36.087Z,15.00
2022-09-15T14:19:32.471Z,15.00
2022-09-15T14:22:01.680Z,15.10
2022-09-15T14:24:31.507Z,15.10
2022-09-15T14:27:03.492Z,15.10
2022-09-15T14:29:31.110Z,15.20
2022-09-15T14:32:01.728Z,15.20
2022-09-15T14:34:33.318Z,15.30
2022-09-15T14:37:08.007Z,15.30
2022-09-15T14:39:37.886Z,15.40
2022-09-15T14:42:22.735Z,15.40
2022-09-15T14:47:40.216Z,15.60
2022-09-15T14:50:17.840Z,15.80
2022-09-15T14:53:07.715Z,16.20
2022-09-15T14:56:27.225Z,16.40
2022-09-15T14:58:57.846Z,16.60
2022-09-15T15:01:48.258Z,16.50
2022-09-15T15:04:18.947Z,16.50
2022-09-15T15:07:07.781Z,16.50
2022-09-15T15:09:48.971Z,16.40
2022-09-15T15:12:26.972Z,16.40
2022-09-15T15:14:56.063Z,16.20
2022-09-15T15:17:49.460Z,16.10
2022-09-15T15:20:23.079Z,15.90
2022-09-15T15:23:22.102Z,15.80
2022-09-15T15:25:49.971Z,15.70
2022-09-15T15:28:34.240Z,15.50
2022-09-15T15:31:31.711Z,15.50
2022-09-15T15:34:05.398Z,15.40
2022-09-15T15:36:36.552Z,15.40
2022-09-15T15:39:06.713Z,15.40
2022-09-15T15:41:38.724Z,15.40
2022-09-15T15:44:27.912Z,15.30
2022-09-15T15:47:01.624Z,15.30
2022-09-15T15:49:32.446Z,15.30
2022-09-15T15:52:01.704Z,15.30
2022-09-15T15:54:29.477Z,15.30
2022-09-15T15:57:21.823Z,15.30
2022-09-15T15:59:49.251Z,15.30
2022-09-15T16:02:16.611Z,15.30
2022-09-15T16:04:44.015Z,15.40
2022-09-15T16:07:17.986Z,15.40
2022-09-15T16:09:46.902Z,15.60
2022-09-15T16:12:15.609Z,15.60
2022-09-15T16:14:43.082Z,15.50
2022-09-15T16:17:10.860Z,15.50
2022-09-15T16:19:38.262Z,15.50
2022-09-15T16:22:05.663Z,15.50
2022-09-15T16:24:33.324Z,15.50
2022-09-15T16:27:00.642Z,15.50
2022-09-15T16:29:36.102Z,15.50
2022-09-15T16:32:04.502Z,15.50
2022-09-15T16:34:31.908Z,15.50
2022-09-15T16:36:59.281Z,15.30
2022-09-15T16:39:26.671Z,15.30
2022-09-15T16:41:54.028Z,15.20
2022-09-15T16:44:22.182Z,15.30
2022-09-15T16:46:49.551Z,15.20
2022-09-15T16:49:17.055Z,15.20
2022-09-15T16:51:44.416Z,15.10
2022-09-15T16:54:16.828Z,15.10
2022-09-15T16:56:45.620Z,15.00
2022-09-15T16:59:13.404Z,15.00
2022-09-15T17:01:41.161Z,14.90
2022-09-15T17:04:19.077Z,14.90
2022-09-15T17:06:46.418Z,14.80
2022-09-15T17:09:13.804Z,14.70
2022-09-15T17:11:41.152Z,14.70
2022-09-15T17:14:13.282Z,14.60
2022-09-15T17:16:40.580Z,14.50
2022-09-15T17:19:07.978Z,14.40
2022-09-15T17:21:35.322Z,14.40
2022-09-15T17:24:03.035Z,14.40
2022-09-15T17:26:31.597Z,14.30
2022-09-15T17:28:59.282Z,14.20
2022-09-15T17:31:27.849Z,14.20
2022-09-15T17:33:55.284Z,14.20
2022-09-15T17:36:22.685Z,14.20
2022-09-15T17:38:50.099Z,14.20
2022-09-15T17:41:19.888Z,14.10
2022-09-15T17:43:47.483Z,14.00
2022-09-15T17:46:14.912Z,13.90
2022-09-15T17:48:42.637Z,13.80
2022-09-15T17:51:15.354Z,13.70
2022-09-15T17:53:43.170Z,13.70
2022-09-15T17:56:11.151Z,13.70
2022-09-15T17:58:38.638Z,13.60
2022-09-15T18:01:06.458Z,13.70
2022-09-15T18:03:36.675Z,13.60
2022-09-15T18:06:08.757Z,13.60
2022-09-15T18:08:36.360Z,13.60
2022-09-15T18:11:05.147Z,13.40
2022-09-15T18:13:32.744Z,13.40
2022-09-15T18:16:12.906Z,13.40
2022-09-15T18:18:41.067Z,13.30
2022-09-15T18:21:12.025Z,13.30
2022-09-15T18:23:42.433Z,13.30
2022-09-15T18:26:09.785Z,13.30
2022-09-15T18:28:37.136Z,13.30
2022-09-15T18:31:04.505Z,13.30
2022-09-15T18:33:32.029Z,13.30
2022-09-15T18:35:59.425Z,13.30
2022-09-15T18:38:26.896Z,13.60
2022-09-15T18:40:56.303Z,13.60
2022-09-15T18:43:26.499Z,13.60
2022-09-15T18:45:59.325Z,13.60
2022-09-15T18:48:26.868Z,13.80
2022-09-15T18:50:54.228Z,13.60
2022-09-15T18:53:21.617Z,13.70
2022-09-15T18:55:49.779Z,13.70
2022-09-15T18:58:19.211Z,13.70
2022-09-15T19:00:47.029Z,13.70
2022-09-15T19:03:14.506Z,13.60
2022-09-15T19:05:41.930Z,13.60
2022-09-15T19:08:10.982Z,13.50
2022-09-15T19:10:41.482Z,13.50
2022-09-15T19:13:11.472Z,13.50
2022-09-15T19:15:43.925Z,13.60
2022-09-15T19:18:11.750Z,13.60
2022-09-15T19:20:40.232Z,13.60
2022-09-15T19:23:08.070Z,13.60
2022-09-15T19:25:35.908Z,13.60
2022-09-15T19:28:03.790Z,13.50
2022-09-15T19:30:31.258Z,13.50
2022-09-15T19:32:59.034Z,13.60
2022-09-15T19:35:26.348Z,13.60
2022-09-15T19:37:53.692Z,13.60
2022-09-15T19:40:23.453Z,13.80
2022-09-15T19:42:51.361Z,13.80
2022-09-15T19:45:18.757Z,13.80
2022-09-15T19:47:46.083Z,13.70
2022-09-15T19:50:13.450Z,13.70
2022-09-15T19:52:40.828Z,13.70
2022-09-15T19:55:09.821Z,13.70
2022-09-15T19:57:41.440Z,13.80
2022-09-15T20:00:12.254Z,13.90
2022-09-15T20:02:39.816Z,13.90
2022-09-15T20:05:08.707Z,13.90
2022-09-15T20:07:36.591Z,14.00
2022-09-15T20:10:04.804Z,14.00
2022-09-15T20:12:32.189Z,13.90
2022-09-15T20:14:59.610Z,13.80
2022-09-15T20:17:27.104Z,13.80
2022-09-15T20:19:54.498Z,13.80
2022-09-15T20:22:21.842Z,13.80
2022-09-15T20:24:49.286Z,13.80
2022-09-15T20:27:16.658Z,13.80
2022-09-15T20:29:44.037Z,13.80
2022-09-15T20:32:11.682Z,13.70
2022-09-15T20:34:39.190Z,13.70
2022-09-15T20:37:07.126Z,13.80
2022-09-15T20:39:35.818Z,13.80
2022-09-15T20:42:03.245Z,13.80
2022-09-15T20:44:30.600Z,13.80
2022-09-15T20:46:58.049Z,13.80
2022-09-15T20:49:25.438Z,13.70
2022-09-15T20:51:53.029Z,13.80
2022-09-15T20:54:20.644Z,13.80
2022-09-15T20:56:48.010Z,13.90
2022-09-15T20:59:15.443Z,13.90
2022-09-15T21:01:43.585Z,13.90
2022-09-15T21:04:11.532Z,13.80
2022-09-15T21:06:39.647Z,13.80
2022-09-15T21:09:07.985Z,13.90
2022-09-15T21:11:35.509Z,13.90
2022-09-15T21:14:03.882Z,13.90
2022-09-15T21:16:33.753Z,14.00
2022-09-15T21:19:01.610Z,14.00
2022-09-15T21:21:31.087Z,14.00
2022-09-15T21:24:01.888Z,14.00
2022-09-15T21:26:59.264Z,13.90
2022-09-15T21:29:27.879Z,13.90
2022-09-15T21:31:55.932Z,13.80
2022-09-15T21:34:24.094Z,13.80
2022-09-15T21:36:53.522Z,13.80
2022-09-15T21:39:21.392Z,13.80
2022-09-15T21:41:48.788Z,13.70
2022-09-15T21:44:16.419Z,13.70
2022-09-15T21:46:45.018Z,13.70
2022-09-15T21:49:12.625Z,13.70
2022-09-15T21:51:40.317Z,13.80
2022-09-15T21:54:07.644Z,13.60
2022-09-15T21:56:34.948Z,13.50
2022-09-15T21:59:03.699Z,13.40
2022-09-15T22:01:33.068Z,13.20
2022-09-15T22:04:03.096Z,13.10
2022-09-15T22:06:35.463Z,13.10
2022-09-15T22:09:06.086Z,13.00
2022-09-15T22:11:34.544Z,12.90
2022-09-15T22:14:03.630Z,12.80
2022-09-15T22:16:31.590Z,12.80
2022-09-15T22:18:59.902Z,12.70
2022-09-15T22:21:29.399Z,12.70
2022-09-15T22:23:59.092Z,12.70
2022-09-15T22:26:29.513Z,12.60
2022-09-15T22:28:58.906Z,12.60
2022-09-15T22:31:27.945Z,12.60
2022-09-15T22:33:55.554Z,12.70
2022-09-15T22:36:28.902Z,12.80
2022-09-15T22:39:04.374Z,12.70
2022-09-15T22:41:34.197Z,12.60
2022-09-15T22:44:02.708Z,12.60
2022-09-15T22:46:30.299Z,12.50
2022-09-15T22:48:58.521Z,12.50
2022-09-15T22:51:25.996Z,12.40
2022-09-15T22:53:54.793Z,12.40
2022-09-15T22:56:23.196Z,12.50
2022-09-15T22:58:50.764Z,12.50
2022-09-15T23:01:23.448Z,12.50
2022-09-15T23:03:52.591Z,12.50
2022-09-15T23:06:21.144Z,12.50
2022-09-15T23:08:57.301Z,12.50
2022-09-15T23:11:25.954Z,12.50
2022-09-15T23:13:55.085Z,12.50
2022-09-15T23:16:24.315Z,12.70
2022-09-15T23:18:53.166Z,12.80
2022-09-15T23:21:20.856Z,12.80
2022-09-15T23:23:49.328Z,12.70
2022-09-15T23:26:19.239Z,12.70
2022-09-15T23:28:46.963Z,12.60
2022-09-15T23:31:14.488Z,12.50
2022-09-15T23:33:42.480Z,12.40
2022-09-15T23:36:13.056Z,12.30
2022-09-15T23:38:43.032Z,12.30
2022-09-15T23:41:12.269Z,12.30
2022-09-15T23:43:40.312Z,12.20
2022-09-15T23:46:07.630Z,12.20
2022-09-15T23:48:35.273Z,12.20
2022-09-15T23:51:03.322Z,12.10
2022-09-15T23:53:30.782Z,12.10
2022-09-15T23:55:58.479Z,12.00
2022-09-15T23:58:26.127Z,12.00
